Time;durP1;ratioP1;P1;durP2;ratioP2;P2;SDS_P1;SDS_P2;PMS_P1;PMS_P2;Temp;Humidity;BMP_temperature;BMP_pressure;BME280_temperature;BME280_humidity;BME280_pressure;Samples;Min_cycle;Max_cycle;Signal;HPM_P1;HPM_P2
2022/02/17 00:00:06;;;;;;;21.45;3.00;;;;;;;8.81;100.00;97961.56;4960359;28;20050;-75
2022/02/17 00:02:44;;;;;;;19.17;2.63;;;;;;;8.85;100.00;97994.13;4972297;28;20125;-75
2022/02/17 00:05:11;;;;;;;18.13;4.03;;;;;;;8.91;100.00;97979.44;4969246;28;20046;-76
2022/02/17 00:07:38;;;;;;;18.35;3.40;;;;;;;8.85;100.00;97988.91;4944462;28;20031;-75
2022/02/17 00:10:06;;;;;;;20.77;3.08;;;;;;;8.85;100.00;97993.31;4963157;28;20034;-75
2022/02/17 00:12:33;;;;;;;22.40;3.35;;;;;;;8.82;100.00;98014.66;4955384;28;20107;-75
2022/02/17 00:15:00;;;;;;;24.25;3.17;;;;;;;8.65;100.00;98009.81;4962467;28;20038;-76
2022/02/17 00:17:25;;;;;;;25.42;4.20;;;;;;;8.70;100.00;98030.13;4968543;28;20031;-75
2022/02/17 00:19:52;;;;;;;29.40;3.75;;;;;;;8.42;100.00;98004.16;4953356;28;20070;-76
2022/02/17 00:22:18;;;;;;;26.95;3.92;;;;;;;8.46;100.00;98003.59;4966492;28;20902;-77
2022/02/17 00:39:53;;;;;;;29.88;4.35;;;;;;;8.59;100.00;98057.66;4854554;29;20121;-75
2022/02/17 00:42:19;;;;;;;25.45;3.60;;;;;;;8.55;100.00;98064.28;4862837;29;20045;-74
2022/02/17 00:44:49;;;;;;;21.27;3.42;;;;;;;8.74;100.00;98049.66;4870030;29;20052;-75
2022/02/17 00:47:16;;;;;;;26.52;4.28;;;;;;;8.74;100.00;98037.38;4864992;29;20587;-75
2022/02/17 00:49:42;;;;;;;27.15;4.07;;;;;;;8.76;100.00;98051.03;4856141;29;20104;-75
2022/02/17 00:52:08;;;;;;;25.52;4.35;;;;;;;8.81;100.00;98049.63;4853193;29;20053;-75
2022/02/17 00:54:34;;;;;;;24.77;3.70;;;;;;;8.76;100.00;98053.66;4839740;29;20571;-75
2022/02/17 00:57:00;;;;;;;23.38;3.10;;;;;;;8.82;100.00;98046.81;4854861;29;20737;-75
2022/02/17 00:59:28;;;;;;;33.35;4.30;;;;;;;8.53;100.00;98019.25;4868451;29;20041;-75
2022/02/17 01:01:55;;;;;;;28.58;4.45;;;;;;;8.76;98.61;98039.78;4854451;29;20040;-74
2022/02/17 01:04:24;;;;;;;25.95;3.22;;;;;;;8.70;100.00;98028.31;4853668;29;20096;-74
2022/02/17 01:06:51;;;;;;;23.95;4.32;;;;;;;8.57;98.08;98029.13;4851713;29;20052;-75
2022/02/17 01:09:20;;;;;;;23.17;2.88;;;;;;;8.64;98.95;98036.94;4855148;29;20041;-75
2022/02/17 01:11:46;;;;;;;24.52;3.83;;;;;;;8.58;98.63;98015.03;4859317;29;20045;-75
2022/02/17 01:14:12;;;;;;;23.63;3.50;;;;;;;8.63;99.13;98029.34;4852975;29;20036;-75
2022/02/17 01:16:39;;;;;;;19.05;3.80;;;;;;;8.81;96.45;98036.56;4858397;29;20060;-75
2022/02/17 01:19:12;;;;;;;25.20;3.42;;;;;;;8.71;98.62;98037.75;4855869;29;20056;-75
2022/02/17 01:21:44;;;;;;;23.55;3.33;;;;;;;8.73;96.76;98034.94;4858438;29;20038;-75
2022/02/17 01:24:12;;;;;;;23.42;4.20;;;;;;;8.50;96.98;98024.91;4858618;29;20071;-75
2022/02/17 01:26:38;;;;;;;20.33;4.20;;;;;;;8.44;98.78;98036.94;4858473;29;20045;-75
2022/02/17 01:29:06;;;;;;;25.88;3.90;;;;;;;8.47;96.87;98007.78;4845864;29;20674;-75
2022/02/17 01:31:34;;;;;;;18.63;3.30;;;;;;;8.42;98.31;97998.94;4843463;29;20064;-77
2022/02/17 01:34:08;;;;;;;20.48;3.58;;;;;;;8.53;99.11;98012.25;4857539;29;20123;-75
2022/02/17 01:36:35;;;;;;;21.80;4.25;;;;;;;8.70;95.67;98014.44;4872353;29;20399;-75
2022/02/17 01:39:02;;;;;;;25.58;3.85;;;;;;;8.67;98.83;98020.09;4858115;29;20037;-76
2022/02/17 01:41:28;;;;;;;19.50;3.42;;;;;;;8.63;95.18;97998.78;4864575;29;20045;-77
2022/02/17 01:44:02;;;;;;;23.60;3.20;;;;;;;8.77;92.88;98000.38;4858543;29;20040;-76
2022/02/17 01:46:40;;;;;;;18.88;2.88;;;;;;;8.91;90.84;98005.56;4846743;29;20092;-76
2022/02/17 01:49:08;;;;;;;21.10;2.83;;;;;;;8.85;92.69;98009.81;4856096;29;20033;-76
2022/02/17 01:51:34;;;;;;;20.70;3.45;;;;;;;8.91;89.34;97995.13;4844816;29;20040;-77
2022/02/17 01:54:02;;;;;;;13.45;3.03;;;;;;;8.81;91.27;98002.59;4857126;29;20104;-76
2022/02/17 01:56:29;;;;;;;20.50;3.28;;;;;;;8.72;91.69;98004.59;4851714;29;20068;-77
2022/02/17 01:59:05;;;;;;;19.65;3.13;;;;;;;8.80;89.37;98001.78;4872495;29;20037;-76
2022/02/17 02:01:33;;;;;;;21.20;3.25;;;;;;;8.64;93.73;98002.19;4865848;29;20559;-76
2022/02/17 02:03:59;;;;;;;19.38;2.97;;;;;;;8.67;90.87;97981.69;4868494;29;20037;-76
2022/02/17 02:06:25;;;;;;;20.70;3.33;;;;;;;8.68;90.31;97979.88;4854763;29;20041;-75
2022/02/17 02:09:00;;;;;;;24.27;3.38;;;;;;;8.69;89.97;97978.88;4855558;29;20056;-76
2022/02/17 02:11:30;;;;;;;15.07;2.63;;;;;;;8.65;93.07;98002.00;4853154;29;20136;-77
2022/02/17 02:14:03;;;;;;;22.50;3.45;;;;;;;8.71;92.14;98000.38;4869968;29;20039;-76
2022/02/17 02:16:33;;;;;;;18.27;3.35;;;;;;;8.65;90.59;97993.34;4853528;29;20411;-76
2022/02/17 02:18:59;;;;;;;17.77;2.83;;;;;;;8.63;90.03;97990.13;4853525;29;20055;-75
2022/02/17 02:21:26;;;;;;;16.23;3.08;;;;;;;8.59;89.12;98018.47;4866840;29;20033;-77
2022/02/17 02:23:51;;;;;;;21.88;2.95;;;;;;;8.53;86.77;98000.97;4868074;29;20037;-76
2022/02/17 02:26:17;;;;;;;21.90;3.40;;;;;;;8.57;86.92;97987.31;4854123;29;20041;-76
2022/02/17 02:28:43;;;;;;;19.95;3.45;;;;;;;8.44;88.20;98013.44;4872253;29;20121;-75
2022/02/17 02:31:09;;;;;;;23.63;3.58;;;;;;;8.58;84.78;98019.47;4871557;29;20041;-76
2022/02/17 02:33:35;;;;;;;19.15;3.00;;;;;;;8.52;86.81;98005.41;4870881;29;20041;-76
2022/02/17 02:36:01;;;;;;;14.35;2.97;;;;;;;8.46;86.02;98006.19;4872366;29;20431;-76
2022/02/17 02:38:30;;;;;;;26.77;3.63;;;;;;;8.44;85.96;98012.59;4849534;29;20050;-75
2022/02/17 02:40:55;;;;;;;21.70;3.03;;;;;;;8.40;87.00;97996.53;4873423;29;20048;-75
2022/02/17 02:43:38;;;;;;;27.67;3.15;;;;;;;8.31;88.21;98029.84;4867208;29;20045;-76
2022/02/17 02:46:07;;;;;;;25.88;3.63;;;;;;;8.24;89.75;98020.41;4873159;29;20448;-76
2022/02/17 02:48:34;;;;;;;25.30;3.53;;;;;;;8.11;90.60;98000.28;4873918;29;20036;-75
2022/02/17 02:50:59;;;;;;;24.98;3.63;;;;;;;8.17;90.49;98020.38;4869683;29;20045;-76
2022/02/17 02:53:25;;;;;;;25.05;3.65;;;;;;;8.01;92.22;98007.69;4872776;29;20045;-76
2022/02/17 02:55:50;;;;;;;28.98;3.95;;;;;;;8.03;89.77;98006.50;4868533;29;20033;-75
2022/02/17 02:58:18;;;;;;;37.33;3.90;;;;;;;7.95;90.85;98036.19;4854097;29;20124;-75
2022/02/17 03:00:48;;;;;;;21.83;3.13;;;;;;;7.93;92.32;98037.38;4857093;29;20053;-76
2022/02/17 03:03:16;;;;;;;29.25;3.72;;;;;;;7.94;89.87;98049.44;4872413;29;20045;-77
2022/02/17 03:05:44;;;;;;;25.63;4.63;;;;;;;7.93;91.05;98029.53;4887132;29;20085;-75
2022/02/17 03:08:13;;;;;;;22.83;3.58;;;;;;;8.00;88.64;98059.09;4869407;29;20100;-78
2022/02/17 03:10:39;;;;;;;26.08;3.53;;;;;;;7.94;87.96;98078.94;4873477;29;20088;-76
2022/02/17 03:13:09;;;;;;;24.80;3.60;;;;;;;7.80;89.05;98053.81;4868267;29;20045;-75
2022/02/17 03:15:34;;;;;;;27.30;3.85;;;;;;;7.82;89.33;98080.50;4854628;29;20767;-76
2022/02/17 03:18:02;;;;;;;19.95;3.20;;;;;;;7.73;88.86;98048.53;4867517;29;20431;-76
2022/02/17 03:20:27;;;;;;;22.98;3.42;;;;;;;7.69;89.04;98055.16;4871514;29;20037;-76
2022/02/17 03:22:53;;;;;;;25.05;4.22;;;;;;;7.80;86.64;98057.22;4857263;29;20053;-75
2022/02/17 03:25:19;;;;;;;24.90;3.85;;;;;;;7.71;89.06;98058.38;4867312;29;20121;-76
2022/02/17 03:27:44;;;;;;;20.70;2.97;;;;;;;7.75;89.77;98053.56;4857425;29;20482;-75
2022/02/17 03:30:39;;;;;;;18.98;3.08;;;;;;;7.64;89.52;98065.34;4863099;29;20042;-76
2022/02/17 03:33:15;;;;;;;25.05;3.72;;;;;;;7.59;90.87;98086.81;4860925;29;20040;-77
2022/02/17 03:35:40;;;;;;;24.27;3.45;;;;;;;7.63;90.82;98061.16;4872009;29;20033;-75
2022/02/17 03:38:07;;;;;;;23.13;4.15;;;;;;;7.59;90.83;98080.78;4870951;29;20045;-76
2022/02/17 03:40:36;;;;;;;27.13;3.67;;;;;;;7.50;91.03;98053.25;4871065;29;20037;-75
2022/02/17 03:43:01;;;;;;;25.60;3.45;;;;;;;7.61;88.85;98094.44;4853559;29;20043;-75
2022/02/17 03:45:27;;;;;;;24.50;3.42;;;;;;;7.61;89.53;98081.41;4835884;29;20044;-78
2022/02/17 03:48:04;;;;;;;21.25;3.95;;;;;;;7.62;88.69;98082.22;4866188;29;20055;-76
2022/02/17 03:50:30;;;;;;;23.45;3.40;;;;;;;7.65;88.01;98093.06;4855877;29;20840;-76
2022/02/17 03:53:06;;;;;;;17.33;3.55;;;;;;;7.65;87.50;98102.66;4865542;29;20037;-75
2022/02/17 03:55:35;;;;;;;17.27;3.10;;;;;;;7.62;86.38;98111.69;4884890;29;20423;-75
2022/02/17 03:58:00;;;;;;;27.60;3.63;;;;;;;7.67;86.82;98096.28;4869872;29;20037;-75
2022/02/17 04:00:28;;;;;;;20.45;3.13;;;;;;;7.63;88.13;98097.66;4868917;29;20045;-75
2022/02/17 04:02:56;;;;;;;18.52;3.03;;;;;;;7.59;87.82;98099.84;4864594;29;20044;-76
2022/02/17 04:05:24;;;;;;;21.75;3.50;;;;;;;7.54;86.34;98080.56;4861850;29;20121;-76
2022/02/17 04:07:59;;;;;;;24.83;3.20;;;;;;;7.64;87.86;98109.69;4847737;29;20033;-76
2022/02/17 04:10:27;;;;;;;36.33;4.00;;;;;;;7.53;88.41;98102.41;4863853;29;20037;-76
2022/02/17 04:12:56;;;;;;;27.02;3.72;;;;;;;7.56;87.22;98099.44;4866076;29;20028;-76
2022/02/17 04:15:24;;;;;;;26.85;3.88;;;;;;;7.55;86.81;98105.63;4866639;29;20037;-75
2022/02/17 04:17:51;;;;;;;25.50;3.90;;;;;;;7.54;86.98;98102.22;4856678;29;20044;-76
2022/02/17 04:20:20;;;;;;;33.67;3.85;;;;;;;7.56;86.61;98089.00;4866295;29;20045;-76
2022/02/17 04:23:06;;;;;;;26.08;3.42;;;;;;;7.54;86.85;98112.66;4852509;29;20076;-75
2022/02/17 04:25:35;;;;;;;28.42;4.22;;;;;;;7.38;89.92;98110.34;4837680;29;20605;-76
2022/02/17 04:28:04;;;;;;;25.33;2.72;;;;;;;7.30;89.71;98124.31;4867175;29;20033;-77
2022/02/17 04:30:30;;;;;;;28.27;4.18;;;;;;;7.22;90.02;98095.78;4857445;29;20063;-77
2022/02/17 04:33:00;;;;;;;23.90;3.33;;;;;;;7.24;91.49;98112.06;4851718;29;20032;-76
2022/02/17 04:35:37;;;;;;;23.77;3.53;;;;;;;7.22;91.18;98112.22;4864845;29;20453;-76
2022/02/17 04:38:02;;;;;;;26.10;3.75;;;;;;;7.22;91.03;98103.63;4851216;29;20036;-75
2022/02/17 04:43:19;;;;;;;32.90;4.38;;;;;;;7.41;85.91;98126.41;4873294;29;20052;-78
2022/02/17 04:45:46;;;;;;;22.50;3.97;;;;;;;7.38;87.22;98121.59;4860932;29;20057;-77
2022/02/17 04:48:11;;;;;;;27.75;3.60;;;;;;;7.29;88.91;98146.19;4871648;29;20048;-77
2022/02/17 04:50:37;;;;;;;24.98;4.28;;;;;;;7.12;92.78;98137.84;4860916;29;20056;-76
2022/02/17 04:53:02;;;;;;;30.35;4.88;;;;;;;6.94;93.05;98122.63;4859766;29;20559;-75
2022/02/17 04:55:37;;;;;;;25.98;4.30;;;;;;;7.00;91.94;98140.13;4874664;29;20182;-76
2022/02/17 04:58:03;;;;;;;26.83;3.85;;;;;;;7.06;90.82;98127.34;4853943;29;20094;-76
2022/02/17 05:00:29;;;;;;;23.98;3.50;;;;;;;7.02;91.92;98138.13;4860394;29;20822;-76
2022/02/17 05:03:15;;;;;;;23.67;3.78;;;;;;;6.96;90.34;98127.66;4871902;29;20516;-77
2022/02/17 05:05:45;;;;;;;31.85;3.90;;;;;;;7.02;89.27;98121.69;4875673;29;20045;-75
2022/02/17 05:08:10;;;;;;;28.58;3.70;;;;;;;7.01;90.89;98133.94;4837662;29;20045;-76
2022/02/17 05:10:36;;;;;;;24.23;3.20;;;;;;;7.00;90.72;98115.88;4872699;29;20120;-76
2022/02/17 05:13:02;;;;;;;22.00;3.20;;;;;;;6.94;91.99;98135.66;4873999;29;20521;-76
2022/02/17 05:15:27;;;;;;;24.73;3.35;;;;;;;6.82;91.94;98104.09;4871417;29;20036;-77
2022/02/17 05:17:57;;;;;;;23.80;3.55;;;;;;;6.82;92.17;98130.16;4876939;29;20052;-76
2022/02/17 05:20:23;;;;;;;26.50;3.80;;;;;;;6.86;92.93;98133.19;4874410;29;20652;-77
2022/02/17 05:23:12;;;;;;;28.30;4.10;;;;;;;6.76;92.67;98127.47;4861847;29;20805;-76
2022/02/17 05:26:00;;;;;;;24.10;3.50;;;;;;;6.74;93.51;98114.66;4874803;29;20085;-78
2022/02/17 05:28:38;;;;;;;25.85;4.20;;;;;;;6.69;93.69;98126.63;4873913;29;20103;-76
2022/02/17 05:31:30;;;;;;;22.02;3.17;;;;;;;6.66;93.33;98119.97;4868391;29;20061;-76
2022/02/17 05:34:06;;;;;;;25.67;4.05;;;;;;;6.72;92.78;98116.59;4862734;29;20045;-77
2022/02/17 05:36:40;;;;;;;25.00;3.80;;;;;;;6.73;92.81;98120.84;4849866;29;20279;-76
2022/02/17 05:39:35;;;;;;;33.80;4.45;;;;;;;6.74;93.95;98119.03;4813893;29;20054;-75
2022/02/17 05:42:16;;;;;;;29.67;4.43;;;;;;;6.59;95.65;98111.28;4847142;29;20041;-76
2022/02/17 05:44:42;;;;;;;29.77;4.50;;;;;;;6.55;95.90;98117.84;4873179;29;20037;-76
2022/02/17 05:47:08;;;;;;;26.98;3.58;;;;;;;6.51;98.31;98125.22;4869978;29;20059;-75
2022/02/17 05:49:34;;;;;;;28.20;4.05;;;;;;;6.63;95.45;98113.34;4858690;29;20079;-76
2022/02/17 05:52:00;;;;;;;42.03;4.68;;;;;;;6.36;100.00;98116.66;4874681;29;20111;-75
2022/02/17 05:54:26;;;;;;;32.92;4.13;;;;;;;6.34;98.90;98129.84;4873873;29;20596;-76
2022/02/17 05:56:51;;;;;;;35.95;5.13;;;;;;;6.17;100.00;98125.84;4872299;29;20622;-75
2022/02/17 05:59:17;;;;;;;42.72;4.70;;;;;;;6.07;100.00;98159.16;4865270;29;20066;-75
2022/02/17 06:01:43;;;;;;;28.45;4.07;;;;;;;5.89;100.00;98144.69;4870335;29;20116;-76
2022/02/17 06:04:09;;;;;;;33.30;4.13;;;;;;;5.69;100.00;98169.59;4868373;29;20593;-75
2022/02/17 06:06:36;;;;;;;40.10;5.07;;;;;;;5.62;100.00;98159.13;4872555;29;20084;-76
2022/02/17 06:09:03;;;;;;;29.73;4.25;;;;;;;5.63;100.00;98173.72;4855285;29;20041;-76
2022/02/17 06:11:30;;;;;;;37.78;4.32;;;;;;;5.73;100.00;98165.69;4873592;29;20037;-76
2022/02/17 06:13:57;;;;;;;34.40;4.53;;;;;;;5.57;100.00;98158.84;4858442;29;20025;-75
2022/02/17 06:16:22;;;;;;;39.63;4.55;;;;;;;5.66;100.00;98173.38;4873927;29;20071;-76
2022/02/17 06:18:48;;;;;;;29.02;3.53;;;;;;;5.77;100.00;98203.34;4857932;29;20068;-76
2022/02/17 06:21:14;;;;;;;31.63;4.72;;;;;;;5.66;100.00;98210.59;4867650;29;20041;-75
2022/02/17 06:23:40;;;;;;;30.00;4.15;;;;;;;5.64;100.00;98209.16;4870500;29;20097;-76
2022/02/17 06:26:05;;;;;;;34.75;4.43;;;;;;;5.51;100.00;98211.56;4854630;29;20590;-76
2022/02/17 06:28:31;;;;;;;31.63;5.30;;;;;;;5.52;100.00;98237.38;4872552;29;20044;-76
2022/02/17 06:30:56;;;;;;;28.38;3.45;;;;;;;5.46;100.00;98214.66;4874438;29;20072;-77
2022/02/17 06:33:22;;;;;;;37.42;4.63;;;;;;;5.51;100.00;98242.75;4870431;29;20464;-76
2022/02/17 06:35:48;;;;;;;30.52;4.47;;;;;;;5.55;100.00;98257.81;4853804;29;20068;-76
2022/02/17 06:38:13;;;;;;;33.28;4.53;;;;;;;5.40;100.00;98247.38;4850474;29;20037;-76
2022/02/17 06:40:39;;;;;;;28.70;4.35;;;;;;;5.33;100.00;98275.06;4872086;29;20048;-76
2022/02/17 06:43:10;;;;;;;40.13;4.70;;;;;;;5.46;100.00;98293.50;4867460;29;20121;-76
2022/02/17 06:45:37;;;;;;;28.45;3.97;;;;;;;5.41;100.00;98272.41;4857454;29;20279;-76
2022/02/17 06:48:04;;;;;;;42.25;4.38;;;;;;;5.40;100.00;98301.97;4871579;29;20665;-76
2022/02/17 06:50:30;;;;;;;33.40;4.10;;;;;;;5.40;100.00;98288.97;4855157;29;20757;-77
2022/02/17 06:52:55;;;;;;;48.00;5.70;;;;;;;5.36;100.00;98295.50;4872787;29;20094;-76
2022/02/17 06:55:21;;;;;;;40.13;5.28;;;;;;;5.33;100.00;98321.03;4872705;29;20124;-76
2022/02/17 06:57:46;;;;;;;34.97;4.57;;;;;;;5.37;100.00;98298.91;4846816;29;20069;-75
2022/02/17 07:00:32;;;;;;;38.72;4.60;;;;;;;5.42;100.00;98320.78;4868660;29;20052;-76
2022/02/17 07:02:58;;;;;;;33.58;5.70;;;;;;;5.38;100.00;98314.31;4853921;29;20037;-76
2022/02/17 07:05:25;;;;;;;29.60;3.97;;;;;;;5.55;100.00;98332.44;4872494;29;20033;-76
2022/02/17 07:07:52;;;;;;;33.30;4.72;;;;;;;5.54;100.00;98323.00;4882320;29;20041;-76
2022/02/17 07:13:03;;;;;;;22.98;4.38;;;;;;;5.71;100.00;98357.50;4873576;29;20025;-76
2022/02/17 07:15:30;;;;;;;29.83;4.25;;;;;;;5.70;100.00;98366.31;4868711;29;20097;-76
2022/02/17 07:17:56;;;;;;;41.17;4.15;;;;;;;5.71;100.00;98368.72;4873951;29;20051;-75
2022/02/17 07:20:22;;;;;;;27.98;4.25;;;;;;;5.63;100.00;98385.19;4855994;29;20490;-77
2022/02/17 07:22:48;;;;;;;32.78;4.45;;;;;;;5.55;100.00;98381.84;4869464;29;20037;-77
2022/02/17 07:25:14;;;;;;;29.20;3.83;;;;;;;5.57;100.00;98372.06;4865977;29;20689;-76
2022/02/17 07:27:40;;;;;;;29.40;3.47;;;;;;;5.41;100.00;98378.97;4870945;29;20431;-76
2022/02/17 07:30:07;;;;;;;23.63;3.38;;;;;;;5.39;100.00;98400.94;4857134;29;20573;-75
2022/02/17 07:32:32;;;;;;;27.45;3.22;;;;;;;5.26;100.00;98402.28;4869155;29;20100;-75
2022/02/17 07:34:58;;;;;;;25.73;3.42;;;;;;;5.30;100.00;98430.56;4871306;29;20453;-75
2022/02/17 07:37:23;;;;;;;24.80;3.28;;;;;;;5.24;100.00;98443.25;4869830;29;20041;-75
2022/02/17 07:39:49;;;;;;;26.38;4.32;;;;;;;5.25;100.00;98431.03;4871029;29;20069;-74
2022/02/17 07:42:15;;;;;;;25.67;3.30;;;;;;;5.20;100.00;98443.75;4870288;29;20104;-76
2022/02/17 07:44:41;;;;;;;20.23;3.13;;;;;;;5.17;100.00;98472.66;4869748;29;20032;-75
2022/02/17 07:47:07;;;;;;;23.17;3.55;;;;;;;5.07;100.00;98506.66;4854396;29;20041;-75
2022/02/17 07:49:33;;;;;;;22.48;3.30;;;;;;;5.15;100.00;98495.41;4872368;29;20060;-74
2022/02/17 07:51:58;;;;;;;32.33;4.18;;;;;;;5.10;100.00;98503.69;4870318;29;20146;-74
2022/02/17 07:54:25;;;;;;;31.88;3.83;;;;;;;5.05;100.00;98521.59;4866222;29;20037;-75
2022/02/17 07:56:51;;;;;;;31.38;4.50;;;;;;;5.11;100.00;98548.72;4869415;29;20033;-75
2022/02/17 07:59:17;;;;;;;22.73;2.63;;;;;;;5.02;100.00;98550.50;4853338;29;20041;-75
2022/02/17 08:01:42;;;;;;;27.65;4.25;;;;;;;4.93;100.00;98552.28;4854875;29;20029;-77
2022/02/17 08:04:09;;;;;;;24.90;3.70;;;;;;;4.97;100.00;98564.00;4870859;29;20041;-75
2022/02/17 08:06:34;;;;;;;24.40;3.17;;;;;;;5.00;100.00;98594.81;4854295;29;20045;-76
2022/02/17 08:09:00;;;;;;;30.48;3.75;;;;;;;4.98;100.00;98567.38;4870109;29;20045;-75
2022/02/17 08:11:25;;;;;;;28.90;4.07;;;;;;;4.91;100.00;98595.78;4862738;29;20432;-75
2022/02/17 08:13:54;;;;;;;35.08;3.22;;;;;;;5.00;100.00;98594.03;4866131;29;20154;-76
2022/02/17 08:16:23;;;;;;;27.65;3.75;;;;;;;5.18;100.00;98596.44;4855823;29;20104;-75
2022/02/17 08:18:49;;;;;;;24.75;3.83;;;;;;;5.13;100.00;98635.91;4869711;29;20029;-77
2022/02/17 08:21:14;;;;;;;29.77;3.10;;;;;;;5.13;100.00;98617.72;4856465;29;20120;-76
2022/02/17 08:23:40;;;;;;;31.85;3.22;;;;;;;5.15;100.00;98652.16;4872402;29;20096;-74
2022/02/17 08:26:06;;;;;;;22.33;3.45;;;;;;;5.21;100.00;98635.91;4872751;29;20264;-75
2022/02/17 08:28:32;;;;;;;27.90;3.15;;;;;;;5.23;100.00;98651.34;4856332;29;20044;-76
2022/02/17 08:30:57;;;;;;;24.65;2.90;;;;;;;5.28;100.00;98630.88;4855776;29;20045;-75
2022/02/17 08:33:23;;;;;;;30.42;3.60;;;;;;;5.25;100.00;98667.59;4872139;29;20783;-75
2022/02/17 08:35:48;;;;;;;21.35;3.65;;;;;;;5.30;100.00;98673.09;4855776;29;20044;-75
2022/02/17 08:38:14;;;;;;;25.60;3.22;;;;;;;5.30;100.00;98691.31;4869362;29;20798;-75
2022/02/17 08:40:40;;;;;;;26.92;3.63;;;;;;;5.37;100.00;98678.44;4868764;29;20101;-75
2022/02/17 08:43:08;;;;;;;23.73;3.08;;;;;;;5.35;100.00;98709.84;4867240;29;20041;-74
2022/02/17 08:45:39;;;;;;;30.38;4.05;;;;;;;5.37;100.00;98731.28;4865144;29;20042;-75
2022/02/17 08:48:06;;;;;;;21.05;3.33;;;;;;;5.34;100.00;98738.59;4870024;29;20037;-75
2022/02/17 08:50:33;;;;;;;35.10;4.63;;;;;;;5.38;100.00;98750.28;4853688;29;20037;-74
2022/02/17 08:52:59;;;;;;;37.95;4.15;;;;;;;5.34;100.00;98762.00;4868344;29;20463;-75
2022/02/17 08:55:25;;;;;;;28.25;4.05;;;;;;;5.30;100.00;98761.50;4864645;29;20073;-76
2022/02/17 08:57:51;;;;;;;24.85;3.47;;;;;;;5.41;100.00;98758.56;4851442;29;20076;-75
2022/02/17 09:00:18;;;;;;;33.03;4.07;;;;;;;5.32;100.00;98779.53;4870291;29;20037;-75
2022/02/17 09:02:44;;;;;;;27.83;4.25;;;;;;;5.33;100.00;98778.53;4871060;29;20096;-75
2022/02/17 09:05:10;;;;;;;28.92;4.10;;;;;;;5.37;100.00;98798.88;4865436;29;20041;-75
2022/02/17 09:07:35;;;;;;;29.98;3.20;;;;;;;5.31;100.00;98796.09;4871744;29;20040;-75
2022/02/17 09:10:01;;;;;;;26.58;3.15;;;;;;;5.32;100.00;98816.75;4868317;29;20053;-76
2022/02/17 09:12:31;;;;;;;30.73;3.90;;;;;;;5.42;100.00;98817.38;4866154;29;20056;-76
2022/02/17 09:14:56;;;;;;;23.15;3.08;;;;;;;5.44;100.00;98814.63;4855913;29;20124;-76
2022/02/17 09:17:22;;;;;;;28.58;2.95;;;;;;;5.43;100.00;98842.44;4853011;29;20049;-76
2022/02/17 09:19:47;;;;;;;19.80;3.05;;;;;;;5.46;100.00;98877.69;4871017;29;20525;-76
2022/02/17 09:22:13;;;;;;;23.55;3.08;;;;;;;5.33;100.00;98857.38;4866330;29;20033;-76
2022/02/17 09:24:39;;;;;;;17.80;2.78;;;;;;;5.30;100.00;98882.88;4868471;29;20029;-76
2022/02/17 09:27:05;;;;;;;28.52;3.00;;;;;;;5.17;100.00;98871.13;4855669;29;20045;-75
2022/02/17 09:29:31;;;;;;;20.42;3.22;;;;;;;5.23;100.00;98888.69;4869444;29;20033;-75
2022/02/17 09:31:56;;;;;;;26.42;3.58;;;;;;;5.22;100.00;98886.25;4858582;29;20035;-75
2022/02/17 09:34:23;;;;;;;24.20;3.20;;;;;;;5.28;100.00;98916.81;4867888;29;20065;-75
2022/02/17 09:36:49;;;;;;;18.20;2.70;;;;;;;5.26;100.00;98913.56;4870104;29;20029;-76
2022/02/17 09:39:15;;;;;;;19.00;2.65;;;;;;;5.23;100.00;98942.47;4871561;29;20404;-75
2022/02/17 09:41:41;;;;;;;18.15;2.35;;;;;;;5.26;100.00;98929.97;4869673;29;20104;-76
2022/02/17 09:44:09;;;;;;;19.27;2.92;;;;;;;5.24;100.00;98972.69;4872936;29;20490;-75
2022/02/17 09:46:45;;;;;;;19.40;2.70;;;;;;;5.22;100.00;98972.84;4868651;29;20033;-76
2022/02/17 09:49:15;;;;;;;20.35;2.55;;;;;;;5.29;100.00;98970.44;4870925;29;20052;-75
2022/02/17 09:51:42;;;;;;;22.23;2.63;;;;;;;5.24;100.00;98981.31;4851660;29;20045;-75
2022/02/17 09:54:08;;;;;;;18.95;2.85;;;;;;;5.31;100.00;98985.88;4842573;29;20053;-75
2022/02/17 09:56:36;;;;;;;17.85;2.92;;;;;;;5.41;100.00;98991.78;4855866;29;20084;-75
2022/02/17 09:59:02;;;;;;;19.05;2.70;;;;;;;5.38;100.00;99005.09;4852890;29;20036;-75
2022/02/17 10:01:28;;;;;;;24.83;2.65;;;;;;;5.43;100.00;99003.66;4872381;29;20052;-75
2022/02/17 10:04:13;;;;;;;21.50;2.00;;;;;;;5.47;100.00;99033.56;4873146;29;20464;-75
2022/02/17 10:06:44;;;;;;;16.08;2.13;;;;;;;5.49;100.00;99035.22;4872703;29;20155;-76
2022/02/17 10:09:10;;;;;;;17.45;2.10;;;;;;;5.58;100.00;99065.50;4874603;29;20097;-75
2022/02/17 10:11:36;;;;;;;12.93;2.30;;;;;;;5.61;100.00;99046.94;4889016;29;20040;-76
2022/02/17 10:14:04;;;;;;;14.25;2.03;;;;;;;5.63;100.00;99058.00;4874785;29;20033;-76
2022/02/17 10:16:54;;;;;;;16.52;2.00;;;;;;;5.63;100.00;99082.25;4870865;29;20041;-75
2022/02/17 10:19:23;;;;;;;15.98;2.15;;;;;;;5.54;100.00;99090.16;4841428;29;20047;-75
2022/02/17 10:21:50;;;;;;;21.08;3.08;;;;;;;5.60;100.00;99105.16;4874171;29;20033;-75
2022/02/17 10:24:33;;;;;;;16.45;2.50;;;;;;;5.65;100.00;99116.75;4873891;29;20041;-76
2022/02/17 10:27:04;;;;;;;21.63;2.33;;;;;;;5.64;100.00;99106.47;4870371;29;20037;-75
2022/02/17 10:29:31;;;;;;;19.83;3.05;;;;;;;5.59;100.00;99122.53;4887426;29;20040;-75
2022/02/17 10:32:05;;;;;;;21.38;2.50;;;;;;;5.50;100.00;99122.66;4871435;29;20037;-75
2022/02/17 10:34:30;;;;;;;23.27;2.65;;;;;;;5.45;100.00;99151.72;4853406;29;20048;-74
2022/02/17 10:36:56;;;;;;;19.15;2.97;;;;;;;5.40;100.00;99143.56;4853850;29;20037;-76
2022/02/17 10:39:22;;;;;;;23.08;3.10;;;;;;;5.46;100.00;99158.53;4855446;29;20128;-76
2022/02/17 10:42:09;;;;;;;25.27;3.40;;;;;;;5.47;100.00;99155.78;4869835;29;20097;-76
2022/02/17 10:44:41;;;;;;;26.77;3.65;;;;;;;5.46;100.00;99169.78;4870186;29;20037;-76
2022/02/17 10:47:13;;;;;;;27.25;3.70;;;;;;;5.36;100.00;99176.84;4871329;29;20424;-75
2022/02/17 10:49:42;;;;;;;25.52;3.03;;;;;;;5.41;100.00;99190.22;4872443;29;20145;-75
2022/02/17 10:52:08;;;;;;;26.65;3.60;;;;;;;5.47;100.00;99187.00;4873105;29;20033;-75
2022/02/17 10:54:34;;;;;;;25.40;2.67;;;;;;;5.55;100.00;99204.44;4856023;29;20129;-75
2022/02/17 10:57:04;;;;;;;24.20;2.95;;;;;;;5.63;100.00;99201.09;4854022;29;20096;-75
2022/02/17 11:02:23;;;;;;;20.65;2.60;;;;;;;5.77;100.00;99210.94;4872898;29;20033;-74
2022/02/17 11:04:52;;;;;;;13.18;2.63;;;;;;;5.74;100.00;99226.03;4878739;29;20037;-75
2022/02/17 11:07:18;;;;;;;12.00;2.20;;;;;;;5.85;100.00;99213.59;4871684;29;20064;-74
2022/02/17 11:09:45;;;;;;;19.23;2.22;;;;;;;5.83;100.00;99230.34;4866237;29;20135;-74
2022/02/17 11:12:11;;;;;;;16.55;2.75;;;;;;;5.93;100.00;99249.25;4871448;29;20045;-74
2022/02/17 11:14:42;;;;;;;16.83;2.42;;;;;;;5.81;100.00;99243.50;4865618;29;20111;-74
2022/02/17 11:17:11;;;;;;;16.98;1.98;;;;;;;5.77;100.00;99255.19;4872542;29;20056;-75
2022/02/17 11:19:37;;;;;;;12.88;1.80;;;;;;;5.63;100.00;99259.16;4868031;29;20040;-75
2022/02/17 11:22:04;;;;;;;13.93;2.00;;;;;;;5.49;100.00;99244.06;4872761;29;20041;-74
2022/02/17 11:24:45;;;;;;;19.38;2.70;;;;;;;5.30;100.00;99250.25;4870402;29;20037;-75
2022/02/17 11:27:11;;;;;;;17.08;1.77;;;;;;;5.22;100.00;99258.78;4873463;29;20037;-75
2022/02/17 11:29:38;;;;;;;12.57;1.88;;;;;;;5.09;100.00;99265.34;4855664;29;20037;-75
2022/02/17 11:32:12;;;;;;;10.65;1.35;;;;;;;5.16;100.00;99275.00;4842758;29;20123;-75
2022/02/17 11:34:45;;;;;;;10.77;1.40;;;;;;;5.11;100.00;99279.00;4874837;29;20036;-75
2022/02/17 11:37:20;;;;;;;11.63;1.23;;;;;;;5.08;100.00;99295.69;4875828;29;20098;-74
2022/02/17 11:40:15;;;;;;;13.05;1.42;;;;;;;5.02;100.00;99291.06;4872911;29;20049;-75
2022/02/17 11:42:46;;;;;;;15.10;1.50;;;;;;;4.90;100.00;99311.25;4870759;29;20061;-75
2022/02/17 11:45:23;;;;;;;9.52;1.25;;;;;;;4.84;100.00;99294.47;4857978;29;20449;-75
2022/02/17 11:48:04;;;;;;;8.90;1.38;;;;;;;4.68;100.00;99325.44;4872288;29;20047;-74
2022/02/17 11:50:40;;;;;;;11.93;1.20;;;;;;;4.59;100.00;99336.69;4867586;29;20048;-75
2022/02/17 11:53:26;;;;;;;6.95;0.95;;;;;;;4.36;100.00;99342.22;4850791;29;20116;-74
2022/02/17 11:56:05;;;;;;;9.65;1.10;;;;;;;4.26;100.00;99337.06;4852012;29;20577;-74
2022/02/17 11:58:40;;;;;;;7.25;0.98;;;;;;;4.16;100.00;99348.41;4868684;29;20491;-77